sensor_id;sensor_type;location;lat;lon;timestamp;P1;durP1;ratioP1;P2;durP2;ratioP2
43606;SDS011;29197;44.788;10.366;2022-08-19T00:01:13;18.77;;;14.30;;
43606;SDS011;29197;44.788;10.366;2022-08-19T00:04:16;14.73;;;12.55;;
43606;SDS011;29197;44.788;10.366;2022-08-19T00:07:07;15.52;;;11.77;;
43606;SDS011;29197;44.788;10.366;2022-08-19T00:09:57;17.25;;;12.18;;
43606;SDS011;29197;44.788;10.366;2022-08-19T00:12:47;20.33;;;13.15;;
43606;SDS011;29197;44.788;10.366;2022-08-19T00:15:36;17.02;;;12.07;;
43606;SDS011;29197;44.788;10.366;2022-08-19T00:18:26;16.25;;;10.23;;
43606;SDS011;29197;44.788;10.366;2022-08-19T00:21:16;16.33;;;11.40;;
43606;SDS011;29197;44.788;10.366;2022-08-19T00:24:07;14.98;;;9.98;;
43606;SDS011;29197;44.788;10.366;2022-08-19T00:26:56;17.27;;;9.00;;
43606;SDS011;29197;44.788;10.366;2022-08-19T00:30:06;16.33;;;10.30;;
43606;SDS011;29197;44.788;10.366;2022-08-19T00:32:56;12.65;;;8.40;;
43606;SDS011;29197;44.788;10.366;2022-08-19T00:35:45;10.15;;;8.27;;
43606;SDS011;29197;44.788;10.366;2022-08-19T00:38:41;12.05;;;10.27;;
43606;SDS011;29197;44.788;10.366;2022-08-19T00:41:32;10.32;;;8.52;;
43606;SDS011;29197;44.788;10.366;2022-08-19T00:44:23;13.40;;;9.65;;
43606;SDS011;29197;44.788;10.366;2022-08-19T00:47:13;12.18;;;8.80;;
43606;SDS011;29197;44.788;10.366;2022-08-19T00:50:05;10.90;;;8.52;;
43606;SDS011;29197;44.788;10.366;2022-08-19T00:52:54;15.35;;;8.63;;
43606;SDS011;29197;44.788;10.366;2022-08-19T00:55:44;14.00;;;9.40;;
43606;SDS011;29197;44.788;10.366;2022-08-19T00:58:38;13.27;;;7.93;;
43606;SDS011;29197;44.788;10.366;2022-08-19T01:01:28;10.55;;;8.23;;
43606;SDS011;29197;44.788;10.366;2022-08-19T01:04:17;12.50;;;8.00;;
43606;SDS011;29197;44.788;10.366;2022-08-19T01:07:07;14.25;;;9.45;;
43606;SDS011;29197;44.788;10.366;2022-08-19T01:10:00;10.38;;;7.95;;
43606;SDS011;29197;44.788;10.366;2022-08-19T01:12:51;12.57;;;8.05;;
43606;SDS011;29197;44.788;10.366;2022-08-19T01:15:43;10.05;;;7.70;;
43606;SDS011;29197;44.788;10.366;2022-08-19T01:18:35;10.50;;;8.35;;
43606;SDS011;29197;44.788;10.366;2022-08-19T01:21:27;12.13;;;8.23;;
43606;SDS011;29197;44.788;10.366;2022-08-19T01:24:21;10.00;;;7.70;;
43606;SDS011;29197;44.788;10.366;2022-08-19T01:27:11;9.65;;;8.40;;
43606;SDS011;29197;44.788;10.366;2022-08-19T01:30:00;11.27;;;8.07;;
43606;SDS011;29197;44.788;10.366;2022-08-19T01:32:49;9.68;;;8.60;;
43606;SDS011;29197;44.788;10.366;2022-08-19T01:35:39;10.75;;;8.27;;
43606;SDS011;29197;44.788;10.366;2022-08-19T01:38:29;12.25;;;8.73;;
43606;SDS011;29197;44.788;10.366;2022-08-19T01:41:19;9.13;;;7.38;;
43606;SDS011;29197;44.788;10.366;2022-08-19T01:44:10;11.30;;;8.15;;
43606;SDS011;29197;44.788;10.366;2022-08-19T01:47:05;12.95;;;9.60;;
43606;SDS011;29197;44.788;10.366;2022-08-19T01:49:54;12.45;;;10.43;;
43606;SDS011;29197;44.788;10.366;2022-08-19T01:52:43;13.18;;;8.35;;
43606;SDS011;29197;44.788;10.366;2022-08-19T01:55:47;11.43;;;8.50;;
43606;SDS011;29197;44.788;10.366;2022-08-19T01:58:40;11.68;;;9.43;;
43606;SDS011;29197;44.788;10.366;2022-08-19T02:01:30;11.30;;;8.75;;
43606;SDS011;29197;44.788;10.366;2022-08-19T02:04:21;14.90;;;8.88;;
43606;SDS011;29197;44.788;10.366;2022-08-19T02:07:10;11.70;;;9.07;;
43606;SDS011;29197;44.788;10.366;2022-08-19T02:10:01;15.10;;;8.38;;
43606;SDS011;29197;44.788;10.366;2022-08-19T02:12:58;15.15;;;10.30;;
43606;SDS011;29197;44.788;10.366;2022-08-19T02:15:48;17.23;;;12.55;;
43606;SDS011;29197;44.788;10.366;2022-08-19T02:18:37;14.40;;;10.35;;
43606;SDS011;29197;44.788;10.366;2022-08-19T02:21:27;12.07;;;9.52;;
43606;SDS011;29197;44.788;10.366;2022-08-19T02:24:17;18.48;;;11.23;;
43606;SDS011;29197;44.788;10.366;2022-08-19T02:27:06;10.75;;;8.07;;
43606;SDS011;29197;44.788;10.366;2022-08-19T02:29:55;12.80;;;8.52;;
43606;SDS011;29197;44.788;10.366;2022-08-19T02:32:46;12.15;;;8.45;;
43606;SDS011;29197;44.788;10.366;2022-08-19T02:35:35;11.55;;;8.30;;
43606;SDS011;29197;44.788;10.366;2022-08-19T02:38:24;13.43;;;7.20;;
43606;SDS011;29197;44.788;10.366;2022-08-19T02:41:15;7.47;;;4.53;;
43606;SDS011;29197;44.788;10.366;2022-08-19T02:44:04;6.70;;;3.15;;
43606;SDS011;29197;44.788;10.366;2022-08-19T02:47:13;6.55;;;2.90;;
43606;SDS011;29197;44.788;10.366;2022-08-19T02:50:05;4.10;;;2.33;;
43606;SDS011;29197;44.788;10.366;2022-08-19T02:52:55;4.10;;;2.13;;
43606;SDS011;29197;44.788;10.366;2022-08-19T02:55:44;3.47;;;2.17;;
43606;SDS011;29197;44.788;10.366;2022-08-19T02:58:34;3.38;;;2.10;;
43606;SDS011;29197;44.788;10.366;2022-08-19T03:01:24;4.63;;;2.28;;
43606;SDS011;29197;44.788;10.366;2022-08-19T03:04:15;4.60;;;2.25;;
43606;SDS011;29197;44.788;10.366;2022-08-19T03:07:06;5.47;;;2.00;;
43606;SDS011;29197;44.788;10.366;2022-08-19T03:09:56;2.28;;;1.67;;
43606;SDS011;29197;44.788;10.366;2022-08-19T03:12:46;2.33;;;1.40;;
43606;SDS011;29197;44.788;10.366;2022-08-19T03:15:38;3.40;;;1.20;;
43606;SDS011;29197;44.788;10.366;2022-08-19T03:18:28;1.25;;;0.98;;
43606;SDS011;29197;44.788;10.366;2022-08-19T03:21:17;3.28;;;1.15;;
43606;SDS011;29197;44.788;10.366;2022-08-19T03:24:08;2.15;;;1.15;;
43606;SDS011;29197;44.788;10.366;2022-08-19T03:26:58;1.52;;;0.80;;
43606;SDS011;29197;44.788;10.366;2022-08-19T03:29:47;2.08;;;0.90;;
43606;SDS011;29197;44.788;10.366;2022-08-19T03:32:37;3.38;;;1.20;;
43606;SDS011;29197;44.788;10.366;2022-08-19T03:35:31;3.45;;;1.23;;
43606;SDS011;29197;44.788;10.366;2022-08-19T03:38:23;2.80;;;1.17;;
43606;SDS011;29197;44.788;10.366;2022-08-19T03:41:14;4.65;;;1.50;;
43606;SDS011;29197;44.788;10.366;2022-08-19T03:44:05;3.67;;;0.95;;
43606;SDS011;29197;44.788;10.366;2022-08-19T03:47:04;2.80;;;0.65;;
43606;SDS011;29197;44.788;10.366;2022-08-19T03:49:54;1.58;;;0.70;;
43606;SDS011;29197;44.788;10.366;2022-08-19T03:52:46;1.48;;;0.60;;
43606;SDS011;29197;44.788;10.366;2022-08-19T03:55:39;2.53;;;0.70;;
43606;SDS011;29197;44.788;10.366;2022-08-19T03:58:31;1.75;;;0.90;;
43606;SDS011;29197;44.788;10.366;2022-08-19T04:01:22;4.03;;;1.13;;
43606;SDS011;29197;44.788;10.366;2022-08-19T04:04:21;1.15;;;0.77;;
43606;SDS011;29197;44.788;10.366;2022-08-19T04:07:15;4.30;;;0.90;;
43606;SDS011;29197;44.788;10.366;2022-08-19T04:10:08;3.30;;;1.50;;
43606;SDS011;29197;44.788;10.366;2022-08-19T04:12:59;2.22;;;0.70;;
43606;SDS011;29197;44.788;10.366;2022-08-19T04:15:50;3.53;;;0.90;;
43606;SDS011;29197;44.788;10.366;2022-08-19T04:18:39;2.47;;;0.93;;
43606;SDS011;29197;44.788;10.366;2022-08-19T04:21:29;1.73;;;0.73;;
43606;SDS011;29197;44.788;10.366;2022-08-19T04:24:19;2.03;;;1.13;;
43606;SDS011;29197;44.788;10.366;2022-08-19T04:27:08;1.85;;;1.00;;
43606;SDS011;29197;44.788;10.366;2022-08-19T04:29:57;2.08;;;0.95;;
43606;SDS011;29197;44.788;10.366;2022-08-19T04:32:48;1.60;;;0.80;;
43606;SDS011;29197;44.788;10.366;2022-08-19T04:35:38;3.25;;;1.30;;
43606;SDS011;29197;44.788;10.366;2022-08-19T04:38:28;4.35;;;1.17;;
43606;SDS011;29197;44.788;10.366;2022-08-19T04:41:17;3.33;;;0.98;;
43606;SDS011;29197;44.788;10.366;2022-08-19T04:44:23;3.72;;;0.70;;
43606;SDS011;29197;44.788;10.366;2022-08-19T04:47:12;3.20;;;1.13;;
43606;SDS011;29197;44.788;10.366;2022-08-19T04:50:23;6.28;;;1.10;;
43606;SDS011;29197;44.788;10.366;2022-08-19T04:53:12;2.92;;;0.82;;
43606;SDS011;29197;44.788;10.366;2022-08-19T04:56:04;2.38;;;1.00;;
43606;SDS011;29197;44.788;10.366;2022-08-19T04:58:56;1.65;;;0.80;;
43606;SDS011;29197;44.788;10.366;2022-08-19T05:01:50;3.53;;;0.95;;
43606;SDS011;29197;44.788;10.366;2022-08-19T05:04:39;0.95;;;0.68;;
43606;SDS011;29197;44.788;10.366;2022-08-19T05:07:30;1.48;;;0.77;;
43606;SDS011;29197;44.788;10.366;2022-08-19T05:10:19;1.75;;;0.63;;
43606;SDS011;29197;44.788;10.366;2022-08-19T05:13:08;5.75;;;0.95;;
43606;SDS011;29197;44.788;10.366;2022-08-19T05:15:58;1.10;;;0.50;;
43606;SDS011;29197;44.788;10.366;2022-08-19T05:18:48;2.63;;;0.73;;
43606;SDS011;29197;44.788;10.366;2022-08-19T05:21:55;1.73;;;0.60;;
43606;SDS011;29197;44.788;10.366;2022-08-19T05:25:06;1.80;;;0.57;;
43606;SDS011;29197;44.788;10.366;2022-08-19T05:27:59;0.77;;;0.50;;
43606;SDS011;29197;44.788;10.366;2022-08-19T05:30:48;1.80;;;0.60;;
43606;SDS011;29197;44.788;10.366;2022-08-19T05:33:38;1.92;;;0.47;;
43606;SDS011;29197;44.788;10.366;2022-08-19T05:36:28;0.82;;;0.50;;
43606;SDS011;29197;44.788;10.366;2022-08-19T05:39:26;2.72;;;0.50;;
43606;SDS011;29197;44.788;10.366;2022-08-19T05:42:18;1.92;;;0.60;;
43606;SDS011;29197;44.788;10.366;2022-08-19T05:45:09;1.73;;;0.43;;
43606;SDS011;29197;44.788;10.366;2022-08-19T05:47:59;1.10;;;0.40;;
43606;SDS011;29197;44.788;10.366;2022-08-19T05:50:48;0.70;;;0.32;;
43606;SDS011;29197;44.788;10.366;2022-08-19T05:53:38;1.42;;;0.32;;
43606;SDS011;29197;44.788;10.366;2022-08-19T05:56:27;1.63;;;0.43;;
43606;SDS011;29197;44.788;10.366;2022-08-19T05:59:19;0.80;;;0.40;;
43606;SDS011;29197;44.788;10.366;2022-08-19T06:02:10;3.50;;;0.60;;
43606;SDS011;29197;44.788;10.366;2022-08-19T06:05:00;1.02;;;0.50;;
43606;SDS011;29197;44.788;10.366;2022-08-19T06:07:49;0.82;;;0.40;;
43606;SDS011;29197;44.788;10.366;2022-08-19T06:10:38;1.17;;;0.43;;
43606;SDS011;29197;44.788;10.366;2022-08-19T06:13:27;0.98;;;0.45;;
43606;SDS011;29197;44.788;10.366;2022-08-19T06:16:22;0.93;;;0.43;;
43606;SDS011;29197;44.788;10.366;2022-08-19T06:19:12;1.75;;;0.30;;
43606;SDS011;29197;44.788;10.366;2022-08-19T06:22:03;2.72;;;0.57;;
43606;SDS011;29197;44.788;10.366;2022-08-19T06:24:53;0.63;;;0.60;;
43606;SDS011;29197;44.788;10.366;2022-08-19T06:27:42;0.82;;;0.52;;
43606;SDS011;29197;44.788;10.366;2022-08-19T06:30:51;0.90;;;0.40;;
43606;SDS011;29197;44.788;10.366;2022-08-19T06:33:42;1.63;;;0.57;;
43606;SDS011;29197;44.788;10.366;2022-08-19T06:36:33;1.15;;;0.65;;
43606;SDS011;29197;44.788;10.366;2022-08-19T06:39:25;1.63;;;0.30;;
43606;SDS011;29197;44.788;10.366;2022-08-19T06:42:16;1.33;;;0.38;;
43606;SDS011;29197;44.788;10.366;2022-08-19T06:45:09;3.08;;;0.82;;
43606;SDS011;29197;44.788;10.366;2022-08-19T06:47:59;1.30;;;0.47;;
43606;SDS011;29197;44.788;10.366;2022-08-19T06:50:51;0.70;;;0.35;;
43606;SDS011;29197;44.788;10.366;2022-08-19T06:53:40;0.63;;;0.63;;
43606;SDS011;29197;44.788;10.366;2022-08-19T06:56:34;0.95;;;0.40;;
43606;SDS011;29197;44.788;10.366;2022-08-19T06:59:24;1.10;;;0.45;;
43606;SDS011;29197;44.788;10.366;2022-08-19T07:02:14;2.35;;;0.70;;
43606;SDS011;29197;44.788;10.366;2022-08-19T07:05:04;0.93;;;0.50;;
43606;SDS011;29197;44.788;10.366;2022-08-19T07:07:55;1.58;;;0.82;;
43606;SDS011;29197;44.788;10.366;2022-08-19T07:10:50;0.70;;;0.47;;
43606;SDS011;29197;44.788;10.366;2022-08-19T07:13:39;1.30;;;0.70;;
43606;SDS011;29197;44.788;10.366;2022-08-19T07:16:30;2.40;;;0.70;;
43606;SDS011;29197;44.788;10.366;2022-08-19T07:19:19;1.33;;;1.05;;
43606;SDS011;29197;44.788;10.366;2022-08-19T07:22:08;1.67;;;0.60;;
43606;SDS011;29197;44.788;10.366;2022-08-19T07:25:00;0.68;;;0.60;;
43606;SDS011;29197;44.788;10.366;2022-08-19T07:27:50;0.93;;;0.50;;
43606;SDS011;29197;44.788;10.366;2022-08-19T07:30:41;0.68;;;0.40;;
43606;SDS011;29197;44.788;10.366;2022-08-19T07:33:31;4.43;;;1.70;;
43606;SDS011;29197;44.788;10.366;2022-08-19T07:36:24;2.08;;;0.75;;
43606;SDS011;29197;44.788;10.366;2022-08-19T07:39:20;1.73;;;0.90;;
43606;SDS011;29197;44.788;10.366;2022-08-19T07:42:12;2.75;;;0.77;;
43606;SDS011;29197;44.788;10.366;2022-08-19T07:45:02;1.85;;;0.60;;
43606;SDS011;29197;44.788;10.366;2022-08-19T07:47:52;1.85;;;0.50;;
43606;SDS011;29197;44.788;10.366;2022-08-19T07:50:41;1.58;;;0.57;;
43606;SDS011;29197;44.788;10.366;2022-08-19T07:53:31;2.28;;;0.70;;
43606;SDS011;29197;44.788;10.366;2022-08-19T07:56:25;2.95;;;1.02;;
43606;SDS011;29197;44.788;10.366;2022-08-19T07:59:16;1.92;;;0.50;;
43606;SDS011;29197;44.788;10.366;2022-08-19T08:02:06;1.08;;;0.60;;
43606;SDS011;29197;44.788;10.366;2022-08-19T08:04:57;0.60;;;0.40;;
43606;SDS011;29197;44.788;10.366;2022-08-19T08:08:04;1.25;;;0.40;;
43606;SDS011;29197;44.788;10.366;2022-08-19T08:11:14;3.78;;;1.10;;
43606;SDS011;29197;44.788;10.366;2022-08-19T08:14:06;1.27;;;0.70;;
43606;SDS011;29197;44.788;10.366;2022-08-19T08:17:17;0.40;;;0.40;;
43606;SDS011;29197;44.788;10.366;2022-08-19T08:20:27;1.67;;;0.50;;
43606;SDS011;29197;44.788;10.366;2022-08-19T08:23:16;0.65;;;0.43;;
43606;SDS011;29197;44.788;10.366;2022-08-19T08:26:13;1.33;;;0.40;;
43606;SDS011;29197;44.788;10.366;2022-08-19T08:29:04;0.22;;;0.22;;
43606;SDS011;29197;44.788;10.366;2022-08-19T08:31:58;1.60;;;0.35;;
43606;SDS011;29197;44.788;10.366;2022-08-19T08:34:49;0.30;;;0.20;;
43606;SDS011;29197;44.788;10.366;2022-08-19T08:37:38;0.68;;;0.30;;
43606;SDS011;29197;44.788;10.366;2022-08-19T08:40:29;2.13;;;0.40;;
43606;SDS011;29197;44.788;10.366;2022-08-19T08:43:26;0.50;;;0.32;;
43606;SDS011;29197;44.788;10.366;2022-08-19T08:46:19;0.85;;;0.55;;
43606;SDS011;29197;44.788;10.366;2022-08-19T08:49:20;2.58;;;0.57;;
43606;SDS011;29197;44.788;10.366;2022-08-19T08:52:18;1.83;;;0.90;;
43606;SDS011;29197;44.788;10.366;2022-08-19T08:55:18;2.80;;;1.10;;
43606;SDS011;29197;44.788;10.366;2022-08-19T08:58:11;1.27;;;0.70;;
43606;SDS011;29197;44.788;10.366;2022-08-19T09:01:02;2.05;;;0.60;;
43606;SDS011;29197;44.788;10.366;2022-08-19T09:03:51;1.50;;;0.90;;
43606;SDS011;29197;44.788;10.366;2022-08-19T09:06:43;2.13;;;0.90;;
43606;SDS011;29197;44.788;10.366;2022-08-19T09:09:42;1.33;;;1.15;;
43606;SDS011;29197;44.788;10.366;2022-08-19T09:12:34;1.42;;;0.75;;
43606;SDS011;29197;44.788;10.366;2022-08-19T09:15:29;1.67;;;0.60;;
43606;SDS011;29197;44.788;10.366;2022-08-19T09:18:25;1.80;;;0.80;;
43606;SDS011;29197;44.788;10.366;2022-08-19T09:21:15;1.33;;;0.93;;
43606;SDS011;29197;44.788;10.366;2022-08-19T09:24:08;2.17;;;0.73;;
43606;SDS011;29197;44.788;10.366;2022-08-19T09:26:58;2.05;;;0.80;;
43606;SDS011;29197;44.788;10.366;2022-08-19T09:30:04;1.20;;;1.10;;
43606;SDS011;29197;44.788;10.366;2022-08-19T09:32:55;1.52;;;0.70;;
43606;SDS011;29197;44.788;10.366;2022-08-19T09:35:45;2.08;;;0.80;;
43606;SDS011;29197;44.788;10.366;2022-08-19T09:38:39;2.15;;;0.98;;
43606;SDS011;29197;44.788;10.366;2022-08-19T09:41:29;1.98;;;0.98;;
43606;SDS011;29197;44.788;10.366;2022-08-19T09:44:21;2.72;;;0.90;;
43606;SDS011;29197;44.788;10.366;2022-08-19T09:47:12;0.65;;;0.63;;
43606;SDS011;29197;44.788;10.366;2022-08-19T09:50:06;2.20;;;1.17;;
43606;SDS011;29197;44.788;10.366;2022-08-19T09:53:02;1.05;;;0.68;;
43606;SDS011;29197;44.788;10.366;2022-08-19T09:55:54;1.15;;;0.60;;
43606;SDS011;29197;44.788;10.366;2022-08-19T09:58:43;1.45;;;0.68;;
43606;SDS011;29197;44.788;10.366;2022-08-19T10:01:34;0.52;;;0.40;;
43606;SDS011;29197;44.788;10.366;2022-08-19T10:04:23;1.33;;;0.57;;
43606;SDS011;29197;44.788;10.366;2022-08-19T10:07:32;0.57;;;0.32;;
43606;SDS011;29197;44.788;10.366;2022-08-19T10:10:22;0.40;;;0.40;;
43606;SDS011;29197;44.788;10.366;2022-08-19T10:13:13;1.35;;;0.47;;
43606;SDS011;29197;44.788;10.366;2022-08-19T10:16:04;0.45;;;0.30;;
43606;SDS011;29197;44.788;10.366;2022-08-19T10:18:57;1.88;;;0.40;;
43606;SDS011;29197;44.788;10.366;2022-08-19T10:21:51;0.70;;;0.40;;
43606;SDS011;29197;44.788;10.366;2022-08-19T10:24:46;0.50;;;0.40;;
43606;SDS011;29197;44.788;10.366;2022-08-19T10:27:36;2.88;;;0.40;;
43606;SDS011;29197;44.788;10.366;2022-08-19T10:30:25;1.20;;;0.50;;
43606;SDS011;29197;44.788;10.366;2022-08-19T10:33:14;1.02;;;0.30;;
43606;SDS011;29197;44.788;10.366;2022-08-19T10:36:26;2.05;;;0.50;;
43606;SDS011;29197;44.788;10.366;2022-08-19T10:39:18;0.35;;;0.30;;
43606;SDS011;29197;44.788;10.366;2022-08-19T10:42:09;1.05;;;0.35;;
43606;SDS011;29197;44.788;10.366;2022-08-19T10:45:00;0.55;;;0.35;;
43606;SDS011;29197;44.788;10.366;2022-08-19T10:47:50;0.63;;;0.50;;
43606;SDS011;29197;44.788;10.366;2022-08-19T10:50:40;0.30;;;0.30;;
43606;SDS011;29197;44.788;10.366;2022-08-19T10:53:48;1.52;;;0.70;;
43606;SDS011;29197;44.788;10.366;2022-08-19T10:56:38;1.13;;;0.55;;
43606;SDS011;29197;44.788;10.366;2022-08-19T10:59:43;1.65;;;0.40;;
43606;SDS011;29197;44.788;10.366;2022-08-19T11:02:32;0.95;;;0.50;;
43606;SDS011;29197;44.788;10.366;2022-08-19T11:05:21;4.82;;;1.30;;
43606;SDS011;29197;44.788;10.366;2022-08-19T11:08:10;1.13;;;0.45;;
43606;SDS011;29197;44.788;10.366;2022-08-19T11:11:11;1.65;;;0.63;;
43606;SDS011;29197;44.788;10.366;2022-08-19T11:14:00;0.47;;;0.30;;
43606;SDS011;29197;44.788;10.366;2022-08-19T11:16:50;1.08;;;0.43;;
43606;SDS011;29197;44.788;10.366;2022-08-19T11:19:39;2.35;;;0.80;;
43606;SDS011;29197;44.788;10.366;2022-08-19T11:22:29;1.42;;;0.60;;
43606;SDS011;29197;44.788;10.366;2022-08-19T11:25:27;1.55;;;0.30;;
43606;SDS011;29197;44.788;10.366;2022-08-19T11:28:18;0.35;;;0.32;;
43606;SDS011;29197;44.788;10.366;2022-08-19T11:31:09;0.30;;;0.30;;
43606;SDS011;29197;44.788;10.366;2022-08-19T11:33:59;0.28;;;0.25;;
43606;SDS011;29197;44.788;10.366;2022-08-19T11:36:50;2.15;;;0.50;;
43606;SDS011;29197;44.788;10.366;2022-08-19T11:39:41;1.88;;;0.40;;
43606;SDS011;29197;44.788;10.366;2022-08-19T11:42:39;1.55;;;0.30;;
43606;SDS011;29197;44.788;10.366;2022-08-19T11:45:45;0.38;;;0.30;;
43606;SDS011;29197;44.788;10.366;2022-08-19T11:48:35;0.95;;;0.30;;
43606;SDS011;29197;44.788;10.366;2022-08-19T11:51:25;3.45;;;0.50;;
43606;SDS011;29197;44.788;10.366;2022-08-19T11:54:14;0.55;;;0.40;;
43606;SDS011;29197;44.788;10.366;2022-08-19T11:57:04;0.82;;;0.30;;
43606;SDS011;29197;44.788;10.366;2022-08-19T11:59:53;1.17;;;0.20;;
43606;SDS011;29197;44.788;10.366;2022-08-19T12:02:45;0.30;;;0.30;;
43606;SDS011;29197;44.788;10.366;2022-08-19T12:05:36;1.45;;;0.47;;
43606;SDS011;29197;44.788;10.366;2022-08-19T12:08:26;0.85;;;0.43;;
43606;SDS011;29197;44.788;10.366;2022-08-19T12:11:15;1.85;;;0.25;;
43606;SDS011;29197;44.788;10.366;2022-08-19T12:14:05;2.28;;;0.30;;
43606;SDS011;29197;44.788;10.366;2022-08-19T12:17:00;0.45;;;0.28;;
43606;SDS011;29197;44.788;10.366;2022-08-19T12:19:53;0.68;;;0.30;;
43606;SDS011;29197;44.788;10.366;2022-08-19T12:22:42;0.90;;;0.20;;
43606;SDS011;29197;44.788;10.366;2022-08-19T12:25:32;0.35;;;0.30;;
43606;SDS011;29197;44.788;10.366;2022-08-19T12:28:22;0.25;;;0.20;;
43606;SDS011;29197;44.788;10.366;2022-08-19T12:31:11;0.85;;;0.30;;
43606;SDS011;29197;44.788;10.366;2022-08-19T12:34:00;1.60;;;0.38;;
43606;SDS011;29197;44.788;10.366;2022-08-19T12:36:51;0.85;;;0.40;;
43606;SDS011;29197;44.788;10.366;2022-08-19T12:39:42;4.95;;;0.47;;
43606;SDS011;29197;44.788;10.366;2022-08-19T12:42:31;3.40;;;1.65;;
43606;SDS011;29197;44.788;10.366;2022-08-19T12:45:21;0.90;;;0.30;;
43606;SDS011;29197;44.788;10.366;2022-08-19T12:48:11;1.10;;;0.32;;
43606;SDS011;29197;44.788;10.366;2022-08-19T12:51:20;0.57;;;0.30;;
43606;SDS011;29197;44.788;10.366;2022-08-19T12:54:11;1.52;;;0.38;;
43606;SDS011;29197;44.788;10.366;2022-08-19T12:57:00;0.30;;;0.20;;
43606;SDS011;29197;44.788;10.366;2022-08-19T12:59:52;0.85;;;0.50;;
43606;SDS011;29197;44.788;10.366;2022-08-19T13:02:42;1.30;;;0.28;;
43606;SDS011;29197;44.788;10.366;2022-08-19T13:05:33;0.30;;;0.30;;
43606;SDS011;29197;44.788;10.366;2022-08-19T13:08:22;0.30;;;0.20;;
43606;SDS011;29197;44.788;10.366;2022-08-19T13:11:14;1.23;;;0.40;;
43606;SDS011;29197;44.788;10.366;2022-08-19T13:14:06;0.38;;;0.25;;
43606;SDS011;29197;44.788;10.366;2022-08-19T13:16:56;4.60;;;0.32;;
43606;SDS011;29197;44.788;10.366;2022-08-19T13:19:45;2.50;;;0.30;;
43606;SDS011;29197;44.788;10.366;2022-08-19T13:22:34;0.40;;;0.40;;
43606;SDS011;29197;44.788;10.366;2022-08-19T13:25:24;0.93;;;0.40;;
43606;SDS011;29197;44.788;10.366;2022-08-19T13:28:15;0.30;;;0.30;;
43606;SDS011;29197;44.788;10.366;2022-08-19T13:31:05;0.35;;;0.35;;
43606;SDS011;29197;44.788;10.366;2022-08-19T13:34:11;1.25;;;0.40;;
43606;SDS011;29197;44.788;10.366;2022-08-19T13:37:02;0.65;;;0.40;;
43606;SDS011;29197;44.788;10.366;2022-08-19T13:39:52;1.83;;;0.30;;
43606;SDS011;29197;44.788;10.366;2022-08-19T13:42:41;1.40;;;0.30;;
43606;SDS011;29197;44.788;10.366;2022-08-19T13:45:34;0.30;;;0.20;;
43606;SDS011;29197;44.788;10.366;2022-08-19T13:48:24;0.60;;;0.20;;
43606;SDS011;29197;44.788;10.366;2022-08-19T13:51:14;0.10;;;0.10;;
43606;SDS011;29197;44.788;10.366;2022-08-19T13:54:04;2.35;;;0.20;;
43606;SDS011;29197;44.788;10.366;2022-08-19T13:56:53;0.68;;;0.38;;
43606;SDS011;29197;44.788;10.366;2022-08-19T13:59:42;0.40;;;0.20;;
43606;SDS011;29197;44.788;10.366;2022-08-19T14:02:33;0.77;;;0.30;;
43606;SDS011;29197;44.788;10.366;2022-08-19T14:05:24;2.35;;;0.43;;
43606;SDS011;29197;44.788;10.366;2022-08-19T14:08:13;1.00;;;0.35;;
43606;SDS011;29197;44.788;10.366;2022-08-19T14:11:02;1.08;;;0.55;;
43606;SDS011;29197;44.788;10.366;2022-08-19T14:13:52;0.95;;;0.32;;
43606;SDS011;29197;44.788;10.366;2022-08-19T14:16:41;1.75;;;0.20;;
43606;SDS011;29197;44.788;10.366;2022-08-19T14:19:32;0.45;;;0.15;;
43606;SDS011;29197;44.788;10.366;2022-08-19T14:22:26;0.25;;;0.20;;
43606;SDS011;29197;44.788;10.366;2022-08-19T14:25:16;0.40;;;0.40;;
43606;SDS011;29197;44.788;10.366;2022-08-19T14:28:06;0.35;;;0.35;;
43606;SDS011;29197;44.788;10.366;2022-08-19T14:30:56;0.98;;;0.30;;
43606;SDS011;29197;44.788;10.366;2022-08-19T14:33:45;0.40;;;0.30;;
43606;SDS011;29197;44.788;10.366;2022-08-19T14:36:36;1.92;;;0.75;;
43606;SDS011;29197;44.788;10.366;2022-08-19T14:39:26;0.93;;;0.20;;
43606;SDS011;29197;44.788;10.366;2022-08-19T14:42:15;4.53;;;0.77;;
43606;SDS011;29197;44.788;10.366;2022-08-19T14:45:05;1.02;;;0.25;;
43606;SDS011;29197;44.788;10.366;2022-08-19T14:47:55;0.52;;;0.25;;
43606;SDS011;29197;44.788;10.366;2022-08-19T14:50:45;1.27;;;0.30;;
43606;SDS011;29197;44.788;10.366;2022-08-19T14:53:36;0.65;;;0.40;;
43606;SDS011;29197;44.788;10.366;2022-08-19T14:56:26;0.20;;;0.20;;
43606;SDS011;29197;44.788;10.366;2022-08-19T14:59:17;0.35;;;0.25;;
43606;SDS011;29197;44.788;10.366;2022-08-19T15:02:06;2.95;;;0.55;;
43606;SDS011;29197;44.788;10.366;2022-08-19T15:05:15;0.65;;;0.38;;
43606;SDS011;29197;44.788;10.366;2022-08-19T15:08:06;2.80;;;0.40;;
43606;SDS011;29197;44.788;10.366;2022-08-19T15:10:57;1.52;;;0.40;;
43606;SDS011;29197;44.788;10.366;2022-08-19T15:13:48;0.55;;;0.50;;
43606;SDS011;29197;44.788;10.366;2022-08-19T15:16:37;1.20;;;0.55;;
43606;SDS011;29197;44.788;10.366;2022-08-19T15:19:28;2.05;;;0.65;;
43606;SDS011;29197;44.788;10.366;2022-08-19T15:22:17;1.30;;;0.45;;
43606;SDS011;29197;44.788;10.366;2022-08-19T15:25:07;1.25;;;0.60;;
43606;SDS011;29197;44.788;10.366;2022-08-19T15:27:59;0.88;;;0.43;;
43606;SDS011;29197;44.788;10.366;2022-08-19T15:30:48;0.80;;;0.30;;
43606;SDS011;29197;44.788;10.366;2022-08-19T15:33:38;0.35;;;0.28;;
43606;SDS011;29197;44.788;10.366;2022-08-19T15:36:31;1.50;;;0.30;;
43606;SDS011;29197;44.788;10.366;2022-08-19T15:39:21;3.03;;;0.40;;
43606;SDS011;29197;44.788;10.366;2022-08-19T15:42:10;1.10;;;0.40;;
43606;SDS011;29197;44.788;10.366;2022-08-19T15:45:15;0.47;;;0.40;;
43606;SDS011;29197;44.788;10.366;2022-08-19T15:48:06;0.85;;;0.30;;
43606;SDS011;29197;44.788;10.366;2022-08-19T15:50:56;1.50;;;0.50;;
43606;SDS011;29197;44.788;10.366;2022-08-19T15:53:45;0.50;;;0.20;;
43606;SDS011;29197;44.788;10.366;2022-08-19T15:56:35;0.75;;;0.35;;
43606;SDS011;29197;44.788;10.366;2022-08-19T15:59:47;1.08;;;0.43;;
43606;SDS011;29197;44.788;10.366;2022-08-19T16:02:58;0.28;;;0.20;;
43606;SDS011;29197;44.788;10.366;2022-08-19T16:06:05;0.95;;;0.30;;
43606;SDS011;29197;44.788;10.366;2022-08-19T16:09:11;0.30;;;0.30;;
43606;SDS011;29197;44.788;10.366;2022-08-19T16:12:03;0.98;;;0.55;;
43606;SDS011;29197;44.788;10.366;2022-08-19T16:14:54;1.67;;;0.40;;
43606;SDS011;29197;44.788;10.366;2022-08-19T16:17:43;0.60;;;0.30;;
43606;SDS011;29197;44.788;10.366;2022-08-19T16:20:44;1.25;;;0.50;;
43606;SDS011;29197;44.788;10.366;2022-08-19T16:23:34;1.73;;;0.32;;
43606;SDS011;29197;44.788;10.366;2022-08-19T16:26:23;1.23;;;0.30;;
43606;SDS011;29197;44.788;10.366;2022-08-19T16:29:17;1.00;;;0.50;;
43606;SDS011;29197;44.788;10.366;2022-08-19T16:32:25;1.10;;;0.38;;
43606;SDS011;29197;44.788;10.366;2022-08-19T16:35:14;0.65;;;0.38;;
43606;SDS011;29197;44.788;10.366;2022-08-19T16:38:04;2.78;;;0.75;;
43606;SDS011;29197;44.788;10.366;2022-08-19T16:40:54;2.78;;;1.55;;
43606;SDS011;29197;44.788;10.366;2022-08-19T16:43:42;0.90;;;0.60;;
43606;SDS011;29197;44.788;10.366;2022-08-19T16:46:32;0.85;;;0.60;;
43606;SDS011;29197;44.788;10.366;2022-08-19T16:49:23;2.55;;;0.43;;
43606;SDS011;29197;44.788;10.366;2022-08-19T16:52:33;0.63;;;0.40;;
43606;SDS011;29197;44.788;10.366;2022-08-19T16:55:24;2.25;;;0.45;;
43606;SDS011;29197;44.788;10.366;2022-08-19T16:58:15;0.57;;;0.40;;